Port Nolloth, South Africa
Current Conditions -  °F | °C
As of 6:00 PM on Tuesday 21 Oct 2014 (Local Time) from FAUP Reporting Station
Clear Clear  
Wind Chill: 93°   Ceiling: Unl
Heat Index: 93°   Visibility: 6mi
Dew Point: 23°   Wind: 12mph
Humidity: 8%   Direction: 190°S
Pressure: 29.94"   Gusts: NA
Location:  29.24°S, 16.88°E
Report Text: FAUP 211600Z 19010KT CAVOK 34/M05 Q1014 NOSIG
Loading
Personal Weather Stations






























Interactive Weather Map
Tropical Storm Tracking
New forecast layout! Learn more

10-Day Weather Forecast

Advertisements
Track Severe Weather on mobile